Time;durP1;ratioP1;P1;durP2;ratioP2;P2;SDS_P1;SDS_P2;PMS_P1;PMS_P2;Temp;Humidity;BMP_temperature;BMP_pressure;BME280_temperature;BME280_humidity;BME280_pressure;Samples;Min_cycle;Max_cycle;Signal;HPM_P1;HPM_P2
2022/10/26 00:01:04;;;;;;;0.00;0.00;;;11.50;99.90;;;;;;5091010;28;20044;-84
2022/10/26 00:03:33;;;;;;;0.00;0.00;;;10.40;99.90;;;;;;5098232;28;20035;-84
2022/10/26 00:06:05;;;;;;;0.00;0.00;;;10.30;99.90;;;;;;5095538;28;20047;-84
2022/10/26 00:08:32;;;;;;;0.08;0.08;;;10.30;99.90;;;;;;5093948;28;20032;-82
2022/10/26 00:10:59;;;;;;;0.10;0.10;;;10.30;99.90;;;;;;5096776;28;20050;-84
2022/10/26 00:13:26;;;;;;;0.05;0.05;;;10.20;99.90;;;;;;5095140;28;20039;-85
2022/10/26 00:15:54;;;;;;;0.00;0.00;;;10.30;99.90;;;;;;5091670;28;20052;-84
2022/10/26 00:18:22;;;;;;;0.00;0.00;;;10.30;99.90;;;;;;5091565;28;20024;-84
2022/10/26 00:20:50;;;;;;;0.00;0.00;;;10.20;99.90;;;;;;5093385;28;20673;-84
2022/10/26 00:23:17;;;;;;;0.05;0.05;;;10.20;99.90;;;;;;5090734;28;20056;-84
2022/10/26 00:25:52;;;;;;;0.10;0.10;;;10.20;99.90;;;;;;5094806;28;20055;-83
2022/10/26 00:28:19;;;;;;;0.00;0.00;;;11.00;99.90;;;;;;5088129;28;20028;-84
2022/10/26 00:30:46;;;;;;;0.08;0.08;;;;;;;;;;5088728;28;20023;-83
2022/10/26 00:33:13;;;;;;;0.10;0.10;;;10.00;99.90;;;;;;5088242;28;20050;-83
2022/10/26 00:35:41;;;;;;;0.10;0.10;;;9.80;99.90;;;;;;5093440;28;20031;-84
2022/10/26 00:38:12;;;;;;;0.05;0.05;;;;;;;;;;5089772;28;20107;-84
2022/10/26 00:40:39;;;;;;;0.10;0.10;;;;;;;;;;5099050;28;20021;-84
2022/10/26 00:43:13;;;;;;;0.10;0.10;;;9.80;99.90;;;;;;5095369;28;20024;-85
2022/10/26 00:45:41;;;;;;;0.00;0.00;;;9.80;99.90;;;;;;5098143;28;20044;-83
2022/10/26 00:48:19;;;;;;;0.08;0.08;;;9.80;99.90;;;;;;5083849;28;20056;-84
2022/10/26 00:50:48;;;;;;;0.10;0.10;;;10.70;99.90;;;;;;5094285;28;20071;-83
2022/10/26 00:53:15;;;;;;;0.10;0.10;;;;;;;;;;5092411;28;20025;-84
2022/10/26 00:55:47;;;;;;;0.10;0.10;;;9.70;99.90;;;;;;5090917;28;20071;-84
2022/10/26 00:58:15;;;;;;;0.10;0.10;;;10.10;99.90;;;;;;5090131;28;20063;-84
2022/10/26 01:00:43;;;;;;;0.10;0.10;;;9.70;99.90;;;;;;5091545;28;20040;-84
2022/10/26 01:03:10;;;;;;;0.00;0.00;;;;;;;;;;5085191;28;20075;-85
2022/10/26 01:05:41;;;;;;;0.10;0.10;;;9.70;99.90;;;;;;5096587;28;20040;-85
2022/10/26 01:08:09;;;;;;;0.10;0.10;;;9.70;99.90;;;;;;5094775;28;20032;-83
2022/10/26 01:10:39;;;;;;;0.10;0.10;;;9.70;99.90;;;;;;5093982;28;20041;-83
2022/10/26 01:13:06;;;;;;;0.10;0.10;;;9.70;99.90;;;;;;5095088;28;20191;-85
2022/10/26 01:15:39;;;;;;;0.10;0.10;;;9.60;99.90;;;;;;5092838;28;20020;-84
2022/10/26 01:18:12;;;;;;;0.10;0.10;;;9.70;99.90;;;;;;5091873;28;20056;-86
2022/10/26 01:21:12;;;;;;;0.10;0.10;;;9.70;99.90;;;;;;5090799;28;20032;-84
2022/10/26 01:23:58;;;;;;;0.10;0.10;;;9.70;99.90;;;;;;5096696;28;20044;-82
2022/10/26 01:26:45;;;;;;;0.00;0.00;;;9.70;99.90;;;;;;5090833;28;20052;-86
2022/10/26 01:29:40;;;;;;;0.05;0.05;;;11.00;99.90;;;;;;5090450;28;20056;-84
2022/10/26 01:32:12;;;;;;;0.10;0.10;;;9.70;99.90;;;;;;5083357;28;20055;-84
2022/10/26 01:34:43;;;;;;;0.10;0.10;;;9.60;99.90;;;;;;5096000;28;20020;-84
2022/10/26 01:37:13;;;;;;;0.00;0.00;;;9.70;99.90;;;;;;5094801;28;20047;-85
2022/10/26 01:39:45;;;;;;;0.10;0.10;;;9.70;99.90;;;;;;5088203;28;20080;-84
2022/10/26 01:42:16;;;;;;;0.10;0.10;;;9.70;99.90;;;;;;5092842;28;20057;-85
2022/10/26 01:44:48;;;;;;;0.10;0.10;;;11.30;99.90;;;;;;5092953;28;20052;-83
2022/10/26 01:47:19;;;;;;;0.03;0.03;;;9.70;99.90;;;;;;5093353;28;20048;-85
2022/10/26 01:49:53;;;;;;;0.10;0.10;;;9.70;99.90;;;;;;5086563;28;20047;-85
2022/10/26 01:52:21;;;;;;;0.10;0.10;;;;;;;;;;5089529;28;20055;-83
2022/10/26 01:54:47;;;;;;;0.10;0.10;;;9.70;99.90;;;;;;5092548;28;20055;-87
2022/10/26 01:57:17;;;;;;;0.10;0.10;;;9.70;99.90;;;;;;5096290;28;20038;-83
2022/10/26 01:59:52;;;;;;;;;;;9.70;99.90;;;;;;5087705;28;20055;-83
2022/10/26 02:02:41;;;;;;;0.10;0.10;;;9.70;99.90;;;;;;5090410;28;19959;-85
2022/10/26 02:05:21;;;;;;;0.10;0.10;;;9.60;99.90;;;;;;5092458;28;20060;-85
2022/10/26 02:07:56;;;;;;;0.10;0.10;;;9.60;99.90;;;;;;5088982;28;20020;-85
2022/10/26 02:10:34;;;;;;;0.10;0.10;;;9.60;99.90;;;;;;5086399;28;20061;-84
2022/10/26 02:13:09;;;;;;;0.10;0.10;;;9.60;99.90;;;;;;5090452;28;20066;-84
2022/10/26 02:15:44;;;;;;;0.10;0.10;;;9.60;99.90;;;;;;5086318;28;20048;-84
2022/10/26 02:18:21;;;;;;;0.08;0.08;;;10.60;99.90;;;;;;5092000;28;21077;-85
2022/10/26 02:20:52;;;;;;;0.10;0.10;;;9.60;99.90;;;;;;5084994;28;20067;-85
2022/10/26 02:23:22;;;;;;;0.08;0.08;;;10.70;99.90;;;;;;5093657;28;20028;-85
2022/10/26 02:25:55;;;;;;;0.10;0.10;;;9.60;99.90;;;;;;5093852;28;20056;-84
2022/10/26 02:28:26;;;;;;;0.10;0.10;;;10.70;99.90;;;;;;5090923;28;20024;-86
2022/10/26 02:30:56;;;;;;;0.10;0.10;;;9.60;99.90;;;;;;5088007;28;20087;-83
2022/10/26 02:33:27;;;;;;;0.10;0.10;;;9.60;99.90;;;;;;5088376;28;20100;-84
2022/10/26 02:35:57;;;;;;;0.10;0.10;;;9.60;99.90;;;;;;5110088;27;20056;-85
2022/10/26 02:38:27;;;;;;;0.10;0.10;;;10.10;99.90;;;;;;5090310;28;20028;-85
2022/10/26 02:40:55;;;;;;;0.10;0.10;;;9.60;99.90;;;;;;5087610;28;20067;-85
2022/10/26 02:43:23;;;;;;;0.03;0.03;;;10.30;99.90;;;;;;5092108;28;20035;-84
2022/10/26 02:45:55;;;;;;;0.10;0.10;;;9.60;99.90;;;;;;5090916;28;20027;-86
2022/10/26 02:48:24;;;;;;;0.10;0.10;;;9.60;99.90;;;;;;5084846;28;20029;-83
2022/10/26 02:50:59;;;;;;;0.00;0.00;;;9.50;99.90;;;;;;5089599;28;20075;-85
2022/10/26 02:53:30;;;;;;;0.10;0.10;;;9.60;99.90;;;;;;5095122;28;20016;-85
2022/10/26 02:56:01;;;;;;;0.03;0.03;;;9.60;99.90;;;;;;5093044;28;20025;-86
2022/10/26 02:58:32;;;;;;;0.08;0.08;;;11.20;99.90;;;;;;5084881;28;20200;-85
2022/10/26 03:00:59;;;;;;;0.10;0.10;;;9.90;99.90;;;;;;5086943;28;20040;-85
2022/10/26 03:03:27;;;;;;;0.10;0.10;;;9.60;99.90;;;;;;5091538;28;20056;-85
2022/10/26 03:05:54;;;;;;;0.10;0.10;;;;;;;;;;5089995;28;20044;-85
2022/10/26 03:08:22;;;;;;;0.03;0.03;;;9.60;99.90;;;;;;5084273;28;20032;-85
2022/10/26 03:10:50;;;;;;;0.10;0.10;;;;;;;;;;5085652;28;20047;-86
2022/10/26 03:13:17;;;;;;;0.10;0.10;;;;;;;;;;5085324;28;20060;-85
2022/10/26 03:15:44;;;;;;;0.10;0.10;;;;;;;;;;5087988;28;20060;-84
2022/10/26 03:18:11;;;;;;;0.10;0.10;;;9.70;99.90;;;;;;5089804;28;20029;-84
2022/10/26 03:20:42;;;;;;;0.10;0.10;;;9.60;99.90;;;;;;5092457;28;20040;-83
2022/10/26 03:23:09;;;;;;;0.10;0.10;;;9.60;99.90;;;;;;5090341;28;20063;-81
2022/10/26 03:25:36;;;;;;;0.10;0.10;;;9.60;99.90;;;;;;5099869;28;20029;-84
2022/10/26 03:28:04;;;;;;;0.10;0.10;;;11.30;99.90;;;;;;5094417;28;20059;-84
2022/10/26 03:30:31;;;;;;;0.05;0.05;;;;;;;;;;5091761;28;20048;-85
2022/10/26 03:32:58;;;;;;;0.10;0.10;;;10.20;99.90;;;;;;5090704;28;20051;-83
2022/10/26 03:35:25;;;;;;;0.10;0.10;;;;;;;;;;5095893;28;20028;-85
2022/10/26 03:37:54;;;;;;;0.00;0.00;;;9.70;99.90;;;;;;5094990;28;20087;-84
2022/10/26 03:40:21;;;;;;;0.00;0.00;;;;;;;;;;5098977;28;20044;-85
2022/10/26 03:42:48;;;;;;;0.00;0.00;;;;;;;;;;5096647;28;20032;-85
2022/10/26 03:45:15;;;;;;;0.00;0.00;;;9.90;99.90;;;;;;5090139;28;20040;-86
2022/10/26 03:47:43;;;;;;;0.00;0.00;;;10.00;99.90;;;;;;5091498;28;20024;-87
2022/10/26 03:50:11;;;;;;;0.00;0.00;;;;;;;;;;5098643;28;20040;-86
2022/10/26 03:52:38;;;;;;;0.10;0.10;;;10.10;99.90;;;;;;5094008;28;20024;-83
2022/10/26 03:55:08;;;;;;;0.03;0.03;;;10.10;99.90;;;;;;5092751;28;20064;-84
2022/10/26 03:57:40;;;;;;;0.00;0.00;;;10.10;99.90;;;;;;5098335;28;20068;-84
2022/10/26 04:00:08;;;;;;;0.10;0.10;;;10.00;99.90;;;;;;5093649;28;20055;-84
2022/10/26 04:02:35;;;;;;;0.00;0.00;;;;;;;;;;5092221;28;20055;-84
2022/10/26 04:05:03;;;;;;;0.10;0.10;;;10.00;99.90;;;;;;5094645;28;20056;-84
2022/10/26 04:07:30;;;;;;;0.03;0.03;;;10.00;99.90;;;;;;5092468;28;20068;-85
2022/10/26 04:09:57;;;;;;;0.10;0.10;;;;;;;;;;5102820;28;20021;-85
2022/10/26 04:12:25;;;;;;;0.08;0.08;;;10.10;99.90;;;;;;5101632;27;20059;-85
2022/10/26 04:14:52;;;;;;;0.00;0.00;;;;;;;;;;5085191;28;20043;-83
2022/10/26 04:17:19;;;;;;;0.10;0.10;;;10.00;99.90;;;;;;5091317;28;20032;-84
2022/10/26 04:19:46;;;;;;;0.10;0.10;;;10.00;99.90;;;;;;5093619;28;20033;-85
2022/10/26 04:22:14;;;;;;;0.10;0.10;;;;;;;;;;5091339;28;20048;-84
2022/10/26 04:24:41;;;;;;;0.00;0.00;;;;;;;;;;5091410;28;20041;-85
2022/10/26 04:27:08;;;;;;;0.10;0.10;;;9.90;99.90;;;;;;5092318;28;20059;-85
2022/10/26 04:29:36;;;;;;;0.00;0.00;;;9.90;99.90;;;;;;5089886;28;20048;-83
2022/10/26 04:32:03;;;;;;;0.10;0.10;;;9.90;99.90;;;;;;5090189;28;20021;-85
2022/10/26 04:34:30;;;;;;;0.10;0.10;;;9.90;99.90;;;;;;5088218;28;20041;-85
2022/10/26 04:36:57;;;;;;;0.05;0.05;;;10.00;99.90;;;;;;5078883;28;20062;-84
2022/10/26 04:39:24;;;;;;;0.10;0.10;;;;;;;;;;5086685;28;20053;-84
2022/10/26 04:41:52;;;;;;;0.00;0.00;;;9.90;99.90;;;;;;5094495;28;20052;-84
2022/10/26 04:44:20;;;;;;;0.00;0.00;;;;;;;;;;5089282;28;20025;-84
2022/10/26 04:46:48;;;;;;;0.10;0.10;;;9.70;99.90;;;;;;5091156;28;20056;-83
2022/10/26 04:49:15;;;;;;;0.10;0.10;;;;;;;;;;5091129;28;20024;-84
2022/10/26 04:51:42;;;;;;;0.08;0.08;;;;;;;;;;5098700;28;20059;-85
2022/10/26 04:54:09;;;;;;;0.10;0.10;;;9.70;99.90;;;;;;5091937;28;20048;-85
2022/10/26 04:56:36;;;;;;;0.10;0.10;;;;;;;;;;5097206;28;20065;-84
2022/10/26 04:59:03;;;;;;;0.10;0.10;;;9.70;99.90;;;;;;5095232;28;20025;-85
2022/10/26 05:01:31;;;;;;;0.10;0.10;;;9.60;99.90;;;;;;5093924;28;20032;-85
2022/10/26 05:03:59;;;;;;;0.10;0.10;;;9.60;99.90;;;;;;5090327;28;20052;-85
2022/10/26 05:06:26;;;;;;;0.10;0.10;;;9.50;99.90;;;;;;5094421;28;20048;-85
2022/10/26 05:08:53;;;;;;;0.00;0.00;;;;;;;;;;5093839;28;20079;-85
2022/10/26 05:11:20;;;;;;;0.10;0.10;;;9.60;99.90;;;;;;5094372;28;20067;-85
2022/10/26 05:13:48;;;;;;;0.00;0.00;;;;;;;;;;5099082;28;20039;-85
2022/10/26 05:16:15;;;;;;;0.00;0.00;;;;;;;;;;5090427;28;20089;-84
2022/10/26 05:18:42;;;;;;;0.10;0.10;;;;;;;;;;5094531;28;20024;-86
2022/10/26 05:21:11;;;;;;;0.00;0.00;;;9.70;99.90;;;;;;5091452;28;20055;-85
2022/10/26 05:23:38;;;;;;;0.10;0.10;;;9.80;99.90;;;;;;5091948;28;20036;-84
2022/10/26 05:26:05;;;;;;;0.10;0.10;;;10.10;99.90;;;;;;5094976;28;20032;-84
2022/10/26 05:28:32;;;;;;;0.10;0.10;;;;;;;;;;5089794;28;20071;-85
2022/10/26 05:30:59;;;;;;;0.10;0.10;;;;;;;;;;5089329;28;20024;-85
2022/10/26 05:33:26;;;;;;;0.03;0.03;;;9.60;99.90;;;;;;5097078;28;20033;-85
2022/10/26 05:35:54;;;;;;;0.10;0.10;;;;;;;;;;5098260;28;20051;-82
2022/10/26 05:38:22;;;;;;;0.00;0.00;;;9.90;99.90;;;;;;5095053;28;20060;-87
2022/10/26 05:40:50;;;;;;;0.10;0.10;;;;;;;;;;5094146;28;20075;-84
2022/10/26 05:43:17;;;;;;;0.00;0.00;;;10.00;99.90;;;;;;5095747;27;20024;-86
2022/10/26 06:31:27;;;;;;;0.10;0.10;;;9.80;99.90;;;;;;5051420;28;20124;-86
2022/10/26 06:33:58;;;;;;;0.10;0.10;;;9.70;99.90;;;;;;5052844;28;20461;-85
2022/10/26 06:36:26;;;;;;;0.10;0.10;;;9.80;99.90;;;;;;5035055;28;20450;-86
2022/10/26 06:38:56;;;;;;;0.08;0.08;;;9.70;99.90;;;;;;5034866;28;20049;-86
2022/10/26 06:41:25;;;;;;;0.10;0.10;;;9.80;99.90;;;;;;5035347;28;20055;-86
2022/10/26 06:43:52;;;;;;;0.05;0.05;;;9.80;99.90;;;;;;5034931;28;20110;-85
2022/10/26 06:46:30;;;;;;;0.10;0.10;;;9.80;99.90;;;;;;5034668;28;20053;-86
2022/10/26 06:49:05;;;;;;;0.10;0.10;;;9.90;99.90;;;;;;5053002;28;20084;-86
2022/10/26 06:51:38;;;;;;;0.10;0.10;;;11.40;99.90;;;;;;5035152;28;20041;-85
2022/10/26 06:54:14;;;;;;;0.00;0.00;;;9.90;99.90;;;;;;5035063;28;20076;-86
2022/10/26 06:56:42;;;;;;;0.00;0.00;;;9.90;99.90;;;;;;5052792;28;20055;-86
2022/10/26 06:59:15;;;;;;;0.00;0.00;;;11.90;99.90;;;;;;5052523;28;20110;-85
2022/10/26 07:01:43;;;;;;;0.10;0.10;;;10.00;99.90;;;;;;5052284;28;20502;-85
2022/10/26 07:04:11;;;;;;;0.10;0.10;;;;;;;;;;5052822;28;20041;-86
2022/10/26 07:06:37;;;;;;;0.10;0.10;;;10.10;99.90;;;;;;5018195;28;20071;-85
2022/10/26 07:09:05;;;;;;;0.10;0.10;;;10.10;99.90;;;;;;5035006;28;20494;-85
2022/10/26 07:11:32;;;;;;;0.00;0.00;;;11.20;99.90;;;;;;5034585;28;20079;-85
2022/10/26 07:13:59;;;;;;;0.00;0.00;;;10.20;99.90;;;;;;5035228;28;20559;-86
2022/10/26 07:16:27;;;;;;;0.00;0.00;;;10.20;99.90;;;;;;5034901;28;20127;-85
2022/10/26 07:18:56;;;;;;;0.00;0.00;;;10.30;99.90;;;;;;5052575;28;20084;-86
2022/10/26 07:21:23;;;;;;;0.00;0.00;;;;;;;;;;5052446;28;20037;-85
2022/10/26 07:23:51;;;;;;;0.10;0.10;;;10.30;99.90;;;;;;5052445;28;20044;-86
2022/10/26 07:26:18;;;;;;;0.00;0.00;;;10.50;99.90;;;;;;5018228;28;20091;-84
2022/10/26 07:28:48;;;;;;;0.00;0.00;;;10.50;99.90;;;;;;5034338;28;20051;-86
2022/10/26 07:31:15;;;;;;;0.10;0.10;;;10.50;99.90;;;;;;5034510;28;20055;-85
2022/10/26 07:33:43;;;;;;;0.00;0.00;;;10.50;99.90;;;;;;5034243;28;20055;-86
2022/10/26 07:36:11;;;;;;;0.00;0.00;;;12.90;99.90;;;;;;5052037;28;20045;-85
2022/10/26 07:38:39;;;;;;;0.00;0.00;;;;;;;;;;5034736;28;20076;-85
2022/10/26 07:41:05;;;;;;;0.10;0.10;;;10.60;99.90;;;;;;5034254;28;20049;-86
2022/10/26 07:43:32;;;;;;;0.00;0.00;;;10.70;99.90;;;;;;5018393;28;20462;-85
2022/10/26 07:45:59;;;;;;;0.10;0.10;;;11.20;99.90;;;;;;5052476;28;20069;-86
2022/10/26 07:48:27;;;;;;;0.00;0.00;;;;;;;;;;5034419;28;20067;-86
2022/10/26 07:50:53;;;;;;;0.00;0.00;;;10.90;99.90;;;;;;5034444;28;20112;-86
2022/10/26 07:53:22;;;;;;;0.00;0.00;;;11.00;99.90;;;;;;5052285;28;20080;-86
2022/10/26 07:55:54;;;;;;;0.00;0.00;;;;;;;;;;5035254;28;20903;-88
2022/10/26 07:58:24;;;;;;;0.00;0.00;;;11.30;99.90;;;;;;5034177;28;20045;-87
2022/10/26 08:00:52;;;;;;;0.00;0.00;;;11.40;99.90;;;;;;5034088;28;20081;-86
2022/10/26 08:03:19;;;;;;;0.00;0.00;;;;;;;;;;5034832;28;20045;-87
2022/10/26 08:05:49;;;;;;;0.00;0.00;;;;;;;;;;5036909;28;20045;-87
2022/10/26 08:08:17;;;;;;;0.00;0.00;;;;;;;;;;5038746;28;20106;-87
2022/10/26 08:10:46;;;;;;;0.00;0.00;;;11.70;99.90;;;;;;5038726;28;20048;-88
2022/10/26 08:13:13;;;;;;;0.00;0.00;;;11.80;99.90;;;;;;5038523;28;20084;-87
2022/10/26 08:15:40;;;;;;;0.00;0.00;;;;;;;;;;5038588;28;20099;-87
2022/10/26 08:18:08;;;;;;;0.00;0.00;;;;;;;;;;5036926;28;20083;-87
2022/10/26 08:20:35;;;;;;;0.00;0.00;;;12.10;99.90;;;;;;5037467;28;20486;-86
2022/10/26 08:23:05;;;;;;;0.00;0.00;;;12.20;99.90;;;;;;5054929;28;20080;-86
2022/10/26 08:25:32;;;;;;;0.00;0.00;;;12.30;99.90;;;;;;5037485;28;20123;-87
2022/10/26 08:28:02;;;;;;;0.00;0.00;;;12.40;99.90;;;;;;5021154;28;20466;-85
2022/10/26 08:30:29;;;;;;;0.00;0.00;;;;;;;;;;5036960;28;20453;-86
2022/10/26 08:33:00;;;;;;;0.00;0.00;;;12.50;99.90;;;;;;5055833;28;20049;-87
2022/10/26 08:35:27;;;;;;;0.00;0.00;;;12.50;99.90;;;;;;5056519;28;20132;-85
2022/10/26 08:37:54;;;;;;;0.00;0.00;;;;;;;;;;5054943;28;20086;-86
2022/10/26 08:40:25;;;;;;;0.00;0.00;;;12.60;99.90;;;;;;5055458;28;20124;-87
2022/10/26 08:42:56;;;;;;;0.00;0.00;;;13.00;99.90;;;;;;5037307;28;20048;-87
2022/10/26 08:45:30;;;;;;;0.00;0.00;;;12.70;99.90;;;;;;5037703;28;20041;-87
2022/10/26 08:48:10;;;;;;;0.00;0.00;;;12.70;99.90;;;;;;5054502;28;20546;-86
2022/10/26 08:50:41;;;;;;;0.00;0.00;;;12.80;99.90;;;;;;5054391;28;20545;-86
2022/10/26 08:53:16;;;;;;;0.00;0.00;;;12.90;99.90;;;;;;5036675;28;20083;-86
2022/10/26 08:55:47;;;;;;;0.00;0.00;;;13.80;99.90;;;;;;5035768;28;20052;-86
2022/10/26 08:58:16;;;;;;;0.00;0.00;;;13.30;99.90;;;;;;5035449;28;20045;-87
2022/10/26 09:00:52;;;;;;;0.00;0.00;;;13.10;99.90;;;;;;5036473;28;20044;-86
2022/10/26 09:03:19;;;;;;;0.00;0.00;;;;;;;;;;5035799;28;20044;-87
2022/10/26 09:06:04;;;;;;;0.00;0.00;;;13.30;99.90;;;;;;5035917;28;20080;-86
2022/10/26 09:08:37;;;;;;;0.00;0.00;;;13.40;99.90;;;;;;5053479;28;20079;-87
2022/10/26 09:11:18;;;;;;;0.00;0.00;;;13.50;99.90;;;;;;5052980;28;20049;-87
2022/10/26 09:13:56;;;;;;;0.00;0.00;;;13.20;99.90;;;;;;5035382;28;20555;-86
2022/10/26 09:16:31;;;;;;;0.00;0.00;;;13.70;99.90;;;;;;5052924;28;20418;-86
2022/10/26 09:19:15;;;;;;;0.00;0.00;;;13.80;99.90;;;;;;5035090;28;20037;-87
2022/10/26 09:21:47;;;;;;;0.00;0.00;;;13.80;99.90;;;;;;5053326;28;20476;-86
2022/10/26 09:24:22;;;;;;;0.00;0.00;;;13.80;99.90;;;;;;5036034;28;20045;-87
2022/10/26 09:26:53;;;;;;;0.00;0.00;;;13.90;99.90;;;;;;5036409;28;20498;-87
2022/10/26 09:29:25;;;;;;;0.00;0.00;;;16.20;99.90;;;;;;5035657;28;20103;-88
2022/10/26 09:31:56;;;;;;;0.00;0.00;;;14.60;99.90;;;;;;5035235;28;20124;-88
2022/10/26 09:34:28;;;;;;;0.00;0.00;;;14.30;99.90;;;;;;5053345;28;20083;-87
2022/10/26 09:36:55;;;;;;;0.00;0.00;;;;;;;;;;5035681;28;20087;-88
2022/10/26 09:39:38;;;;;;;0.00;0.00;;;14.40;99.90;;;;;;5034757;28;20469;-88
2022/10/26 09:42:16;;;;;;;0.00;0.00;;;14.90;99.90;;;;;;5035195;28;20120;-90
2022/10/26 09:44:48;;;;;;;0.00;0.00;;;14.70;99.90;;;;;;5052790;28;20095;-88
2022/10/26 09:47:27;;;;;;;0.00;0.00;;;14.90;99.90;;;;;;5035004;28;20448;-89
2022/10/26 09:49:57;;;;;;;0.00;0.00;;;14.90;99.90;;;;;;5034709;28;20139;-88
2022/10/26 09:52:25;;;;;;;0.00;0.00;;;;;;;;;;5035058;28;20159;-87
2022/10/26 09:54:52;;;;;;;0.00;0.00;;;;;;;;;;5035966;28;20450;-87
2022/10/26 09:57:19;;;;;;;0.00;0.00;;;;;;;;;;5036167;28;20049;-87
2022/10/26 09:59:48;;;;;;;0.00;0.00;;;;;;;;;;5035952;28;20110;-87
2022/10/26 10:02:42;;;;;;;0.00;0.00;;;15.50;99.90;;;;;;5035558;28;20095;-88
2022/10/26 10:05:25;;;;;;;0.00;0.00;;;15.60;99.90;;;;;;5035854;28;20048;-87
2022/10/26 10:08:18;;;;;;;0.00;0.00;;;15.50;99.90;;;;;;5037788;28;20052;-86
2022/10/26 10:10:57;;;;;;;0.00;0.00;;;15.70;99.90;;;;;;5035990;28;20041;-89
2022/10/26 10:13:26;;;;;;;0.00;0.00;;;15.80;99.90;;;;;;5019486;28;20049;-88
2022/10/26 10:15:56;;;;;;;0.00;0.00;;;15.90;99.90;;;;;;5036186;28;20417;-88
2022/10/26 10:18:26;;;;;;;0.00;0.00;;;15.90;99.90;;;;;;5035724;28;20049;-87
2022/10/26 10:20:56;;;;;;;0.00;0.00;;;15.90;99.90;;;;;;5035420;28;20132;-88
2022/10/26 10:23:30;;;;;;;0.00;0.00;;;15.90;99.90;;;;;;5053314;28;20095;-87
2022/10/26 10:25:59;;;;;;;0.00;0.00;;;15.90;99.90;;;;;;5053709;28;20203;-87
2022/10/26 10:28:27;;;;;;;0.00;0.00;;;16.00;99.90;;;;;;5050111;28;20053;-88
2022/10/26 10:30:58;;;;;;;0.00;0.00;;;16.10;99.90;;;;;;5018023;28;20374;-87
2022/10/26 10:33:34;;;;;;;0.00;0.00;;;16.10;99.90;;;;;;5052639;28;20041;-87
2022/10/26 10:36:02;;;;;;;0.00;0.00;;;;;;;;;;5035558;28;20045;-88
2022/10/26 10:38:29;;;;;;;0.00;0.00;;;16.20;99.90;;;;;;5053004;28;20494;-86
2022/10/26 10:40:58;;;;;;;0.00;0.00;;;16.40;99.90;;;;;;5036099;28;20386;-87
2022/10/26 10:43:26;;;;;;;0.00;0.00;;;16.40;99.90;;;;;;5053497;28;20059;-87
2022/10/26 10:45:56;;;;;;;0.00;0.00;;;16.40;99.90;;;;;;5053175;28;20056;-88
2022/10/26 10:59:28;;;;;;;0.00;0.00;;;16.30;99.90;;;;;;5035984;28;20053;-85
2022/10/26 11:02:19;;;;;;;0.00;0.00;;;16.40;99.90;;;;;;5036656;28;20082;-87
2022/10/26 11:04:59;;;;;;;0.00;0.00;;;16.40;99.90;;;;;;5040346;28;20057;-88
2022/10/26 11:07:29;;;;;;;0.00;0.00;;;16.40;99.90;;;;;;5034513;28;20064;-85
2022/10/26 11:10:01;;;;;;;0.00;0.00;;;16.60;99.90;;;;;;5029165;28;20045;-88
2022/10/26 11:12:30;;;;;;;0.00;0.00;;;16.40;99.90;;;;;;5045091;28;20460;-86
2022/10/26 11:15:05;;;;;;;0.00;0.00;;;16.40;99.90;;;;;;5037280;28;20044;-87
2022/10/26 11:17:35;;;;;;;0.00;0.00;;;16.30;99.90;;;;;;5030491;28;20053;-88
2022/10/26 11:20:10;;;;;;;0.00;0.00;;;16.40;99.90;;;;;;5045306;28;20079;-88
2022/10/26 11:22:55;;;;;;;0.00;0.00;;;16.40;99.90;;;;;;5018999;28;20046;-86
2022/10/26 11:25:27;;;;;;;0.00;0.00;;;16.40;99.90;;;;;;5045293;28;20058;-86
2022/10/26 11:27:58;;;;;;;0.00;0.00;;;16.50;99.90;;;;;;5035343;28;20052;-86
2022/10/26 11:30:29;;;;;;;0.00;0.00;;;17.80;99.90;;;;;;5041497;28;20065;-87
2022/10/26 11:33:02;;;;;;;0.00;0.00;;;16.70;99.90;;;;;;5025831;28;20073;-84
2022/10/26 11:35:35;;;;;;;0.00;0.00;;;16.70;99.90;;;;;;5033635;28;20069;-88
2022/10/26 11:38:10;;;;;;;0.00;0.00;;;16.70;99.90;;;;;;5050200;28;20068;-85
2022/10/26 11:40:41;;;;;;;0.00;0.00;;;16.80;99.90;;;;;;5027930;28;20430;-87
2022/10/26 11:43:13;;;;;;;0.00;0.00;;;16.70;99.90;;;;;;5025633;28;20116;-88
2022/10/26 11:45:44;;;;;;;0.00;0.00;;;16.80;99.90;;;;;;5034189;28;20056;-83
2022/10/26 11:48:18;;;;;;;0.00;0.00;;;16.80;99.90;;;;;;5030775;28;20045;-86
2022/10/26 11:50:49;;;;;;;0.00;0.00;;;16.90;99.90;;;;;;5042401;28;20056;-86
2022/10/26 11:53:18;;;;;;;0.00;0.00;;;16.90;99.90;;;;;;5032105;28;20119;-87
2022/10/26 11:55:53;;;;;;;0.00;0.00;;;17.60;99.90;;;;;;5045735;28;20068;-89
2022/10/26 11:58:25;;;;;;;0.00;0.00;;;17.00;99.90;;;;;;5041574;28;20042;-85
2022/10/26 12:00:57;;;;;;;0.00;0.00;;;16.90;99.90;;;;;;5032879;28;20065;-87
2022/10/26 12:03:27;;;;;;;0.00;0.00;;;17.00;99.90;;;;;;5049425;28;20033;-86
2022/10/26 12:05:54;;;;;;;0.00;0.00;;;16.90;99.90;;;;;;5039365;28;20050;-87
2022/10/26 12:08:26;;;;;;;0.00;0.00;;;17.00;99.90;;;;;;5021912;28;20045;-87
2022/10/26 12:11:02;;;;;;;0.00;0.00;;;17.00;99.90;;;;;;5041294;28;20087;-83
2022/10/26 12:13:34;;;;;;;0.00;0.00;;;17.00;99.90;;;;;;5025397;28;20041;-87
2022/10/26 12:16:12;;;;;;;0.00;0.00;;;17.10;99.90;;;;;;5034962;28;20037;-86
2022/10/26 12:18:44;;;;;;;0.00;0.00;;;17.10;99.90;;;;;;5044117;28;20073;-88
2022/10/26 12:21:28;;;;;;;0.00;0.00;;;20.10;99.90;;;;;;5024456;28;20141;-84
2022/10/26 12:23:57;;;;;;;0.00;0.00;;;17.20;99.90;;;;;;5043898;28;20124;-87
2022/10/26 12:26:49;;;;;;;0.00;0.00;;;17.10;99.90;;;;;;5024401;28;20048;-88
2022/10/26 12:29:38;;;;;;;0.00;0.00;;;17.10;99.90;;;;;;5033378;28;20046;-88
2022/10/26 12:32:53;;;;;;;0.00;0.00;;;17.10;99.90;;;;;;5040060;28;20071;-86
2022/10/26 12:35:49;;;;;;;0.00;0.00;;;17.10;99.90;;;;;;5035977;28;20306;-88
2022/10/26 12:38:56;;;;;;;0.00;0.00;;;17.20;99.90;;;;;;5026620;28;20379;-88
2022/10/26 12:41:24;;;;;;;0.00;0.00;;;17.20;99.90;;;;;;5036581;28;20390;-87
2022/10/26 12:44:02;;;;;;;0.00;0.00;;;17.20;99.90;;;;;;5048671;28;20037;-87
2022/10/26 12:46:39;;;;;;;0.00;0.00;;;17.20;99.90;;;;;;5036646;28;20053;-88
2022/10/26 12:49:46;;;;;;;0.00;0.00;;;17.30;99.90;;;;;;5025457;28;20050;-85
2022/10/26 12:52:27;;;;;;;0.00;0.00;;;17.30;99.90;;;;;;4958938;28;20045;-87
2022/10/26 12:55:19;;;;;;;0.00;0.00;;;17.30;99.90;;;;;;5035185;28;20472;-86
2022/10/26 12:57:54;;;;;;;0.00;0.00;;;17.30;99.90;;;;;;5039154;28;20136;-86
2022/10/26 13:00:23;;;;;;;0.00;0.00;;;17.40;99.90;;;;;;5029397;28;20059;-87
2022/10/26 13:03:05;;;;;;;0.00;0.00;;;17.40;99.90;;;;;;5041146;28;20107;-89
2022/10/26 13:05:47;;;;;;;0.00;0.00;;;17.30;99.90;;;;;;5033483;28;20095;-88
2022/10/26 13:08:16;;;;;;;0.00;0.00;;;17.30;99.90;;;;;;5047188;28;20512;-87
2022/10/26 13:11:00;;;;;;;0.00;0.00;;;17.40;99.90;;;;;;5035858;28;20057;-86
2022/10/26 13:13:30;;;;;;;0.00;0.00;;;17.50;99.90;;;;;;5031979;28;20045;-85
2022/10/26 13:15:59;;;;;;;0.00;0.00;;;17.40;99.90;;;;;;5043497;28;20120;-87
2022/10/26 13:18:26;;;;;;;0.00;0.00;;;17.40;99.90;;;;;;5018623;28;20470;-85
2022/10/26 13:21:03;;;;;;;0.00;0.00;;;17.40;99.90;;;;;;5034998;28;20466;-85
2022/10/26 13:23:34;;;;;;;0.00;0.00;;;17.40;99.90;;;;;;5038718;28;20071;-86
2022/10/26 13:26:04;;;;;;;0.00;0.00;;;17.40;99.90;;;;;;5043524;28;20071;-86
2022/10/26 13:28:41;;;;;;;0.00;0.00;;;17.40;99.90;;;;;;5034588;28;20042;-86
2022/10/26 13:31:12;;;;;;;0.00;0.00;;;17.50;99.90;;;;;;5029003;28;20030;-84
2022/10/26 13:33:42;;;;;;;0.00;0.00;;;17.40;99.90;;;;;;5048430;28;20043;-89
2022/10/26 13:36:22;;;;;;;0.00;0.00;;;17.40;99.90;;;;;;5038117;28;20041;-86
2022/10/26 13:38:50;;;;;;;0.00;0.00;;;17.40;99.90;;;;;;5034715;28;20457;-85
2022/10/26 13:41:31;;;;;;;0.00;0.00;;;17.40;99.90;;;;;;5035772;28;20041;-84
2022/10/26 13:44:04;;;;;;;0.00;0.00;;;17.60;99.90;;;;;;5045637;28;20490;-87
2022/10/26 13:46:35;;;;;;;0.00;0.00;;;17.80;99.90;;;;;;5018174;28;20041;-86
2022/10/26 13:49:08;;;;;;;0.00;0.00;;;17.70;99.90;;;;;;5033047;28;20070;-89
2022/10/26 13:51:41;;;;;;;0.00;0.00;;;17.60;99.90;;;;;;5036037;28;20050;-88
2022/10/26 13:54:19;;;;;;;0.00;0.00;;;17.60;99.90;;;;;;5036723;28;20556;-87
2022/10/26 13:56:58;;;;;;;0.00;0.00;;;17.80;99.90;;;;;;5039430;28;20454;-86
2022/10/26 13:59:27;;;;;;;0.00;0.00;;;17.70;99.90;;;;;;5036312;28;20382;-86
2022/10/26 14:02:15;;;;;;;0.00;0.00;;;17.80;99.90;;;;;;5033945;28;20070;-87
2022/10/26 14:04:46;;;;;;;0.00;0.00;;;17.90;99.90;;;;;;5015705;28;20124;-88
2022/10/26 14:07:19;;;;;;;0.00;0.00;;;17.80;99.90;;;;;;5032591;28;20037;-88
2022/10/26 14:10:02;;;;;;;0.00;0.00;;;17.80;99.90;;;;;;5012996;28;20565;-85
2022/10/26 14:12:29;;;;;;;0.00;0.00;;;17.80;99.90;;;;;;5031837;28;20055;-86
2022/10/26 14:15:02;;;;;;;0.00;0.00;;;17.70;99.90;;;;;;5028665;28;20091;-88
2022/10/26 14:17:29;;;;;;;0.00;0.00;;;17.70;99.90;;;;;;5025047;28;20053;-85
2022/10/26 14:19:56;;;;;;;0.00;0.00;;;17.70;99.90;;;;;;5030053;28;20120;-88
2022/10/26 14:22:26;;;;;;;0.00;0.00;;;17.60;99.90;;;;;;5043078;28;20040;-84
2022/10/26 14:24:56;;;;;;;0.00;0.00;;;17.70;99.90;;;;;;5040501;28;20099;-86